Pond Inlet, Canada
Current Conditions -  °F | °C
As of 11:00 AM on Wednesday 22 Oct 2014 (Local Time) from CYIO Reporting Station
Overcast Overcast  
Wind Chill: -9°   Ceiling: 3300
Heat Index:   Visibility: 25mi
Dew Point:   Wind: 16mph
Humidity: 73%   Direction: 190°S
Pressure: 29.62"   Gusts: NA
Location:  72.7°N, 78°W
Report Text: CYIO 221500Z 19014KT 25SM OVC033 M13/M17 A2962 RMK SC8 -6.3/-13.0/18 MUCH LOOSE SLP036
Loading
Personal Weather Stations






























Interactive Weather Map
Tropical Storm Tracking
New forecast layout! Learn more

10-Day Weather Forecast

Advertisements
Track Severe Weather on mobile